Time;durP1;ratioP1;P1;durP2;ratioP2;P2;SDS_P1;SDS_P2;PMS_P1;PMS_P2;Temp;Humidity;BMP_temperature;BMP_pressure;BME280_temperature;BME280_humidity;BME280_pressure;Samples;Min_cycle;Max_cycle;Signal;HPM_P1;HPM_P2
2022/06/08 00:01:22;;;;;;;5.80;3.03;;;;;;;11.76;100.00;95348.16;5025997;28;20053;-74
2022/06/08 00:03:54;;;;;;;6.15;3.10;;;;;;;11.83;100.00;95348.63;5022869;28;20124;-74
2022/06/08 00:06:20;;;;;;;6.38;2.97;;;;;;;11.76;100.00;95353.44;5026126;28;20510;-74
2022/06/08 00:08:46;;;;;;;5.15;3.40;;;;;;;11.73;100.00;95357.41;5025666;28;20037;-74
2022/06/08 00:11:12;;;;;;;6.65;3.15;;;;;;;11.70;100.00;95346.66;5023387;28;20829;-74
2022/06/08 00:13:38;;;;;;;5.70;3.70;;;;;;;11.69;100.00;95347.72;5017566;28;20466;-74
2022/06/08 00:16:05;;;;;;;8.82;3.25;;;;;;;11.67;100.00;95341.94;5024623;28;20442;-74
2022/06/08 00:18:30;;;;;;;5.43;3.03;;;;;;;11.60;100.00;95334.38;5031525;28;20041;-75
2022/06/08 00:20:56;;;;;;;5.07;3.10;;;;;;;11.59;100.00;95338.06;5027212;28;20455;-74
2022/06/08 00:23:21;;;;;;;4.65;2.90;;;;;;;11.53;100.00;95333.91;5029934;28;20041;-74
2022/06/08 00:25:47;;;;;;;6.45;2.90;;;;;;;11.58;100.00;95334.66;5029578;28;20041;-74
2022/06/08 00:28:14;;;;;;;6.05;3.05;;;;;;;11.58;100.00;95331.25;5029005;28;20041;-73
2022/06/08 00:30:41;;;;;;;4.70;2.90;;;;;;;11.55;100.00;95327.31;5030405;28;20127;-73
2022/06/08 00:33:06;;;;;;;6.95;2.80;;;;;;;11.60;100.00;95335.16;5024093;28;20045;-73
2022/06/08 00:35:32;;;;;;;5.85;3.08;;;;;;;11.63;100.00;95333.03;5028451;28;20044;-73
2022/06/08 00:37:57;;;;;;;5.82;2.90;;;;;;;11.60;100.00;95335.16;5028824;28;20060;-73
2022/06/08 00:40:48;;;;;;;3.92;2.70;;;;;;;11.59;100.00;95333.59;5028108;28;20100;-74
2022/06/08 00:43:15;;;;;;;5.47;2.90;;;;;;;11.64;100.00;95339.84;5025223;28;20438;-74
2022/06/08 00:45:41;;;;;;;5.43;2.72;;;;;;;11.64;100.00;95339.84;5026260;28;20049;-73
2022/06/08 00:48:07;;;;;;;6.15;3.15;;;;;;;11.59;100.00;95333.59;5020456;28;20506;-74
2022/06/08 00:50:42;;;;;;;5.10;3.13;;;;;;;11.60;100.00;95335.16;5023672;28;20068;-74
2022/06/08 00:53:09;;;;;;;;;;;;;;;11.66;100.00;95343.00;5030586;28;20422;-73
2022/06/08 00:55:38;;;;;;;5.13;2.72;;;;;;;11.65;100.00;95336.16;5024011;28;19932;-73
2022/06/08 00:58:24;;;;;;;5.28;2.88;;;;;;;11.69;100.00;95331.91;5029273;28;20076;-74
2022/06/08 01:00:51;;;;;;;3.95;2.60;;;;;;;11.70;100.00;95334.25;5023777;28;20049;-74
2022/06/08 01:03:17;;;;;;;9.02;3.00;;;;;;;11.65;100.00;95331.69;5030037;28;20518;-74
2022/06/08 01:05:46;;;;;;;4.50;3.10;;;;;;;11.62;100.00;95326.97;5030432;28;20057;-74
2022/06/08 01:08:34;;;;;;;6.25;3.13;;;;;;;11.65;100.00;95323.78;5030307;28;20037;-74
2022/06/08 01:11:04;;;;;;;6.93;3.38;;;;;;;11.72;100.00;95320.78;5030120;28;20048;-74
2022/06/08 01:13:33;;;;;;;5.63;3.20;;;;;;;11.72;100.00;95331.34;5027197;28;20045;-74
2022/06/08 01:16:08;;;;;;;8.50;3.28;;;;;;;11.68;100.00;95312.69;5023636;28;20125;-75
2022/06/08 01:18:34;;;;;;;6.35;3.40;;;;;;;11.78;100.00;95314.41;5029871;28;20048;-75
2022/06/08 01:21:18;;;;;;;7.63;3.70;;;;;;;11.78;100.00;95317.81;5027461;28;20124;-75
2022/06/08 01:23:55;;;;;;;8.27;3.77;;;;;;;11.81;100.00;95313.84;5027246;28;20080;-75
2022/06/08 01:26:27;;;;;;;6.85;3.10;;;;;;;11.88;100.00;95303.75;5030044;28;20298;-75
2022/06/08 01:29:22;;;;;;;6.07;3.40;;;;;;;11.83;100.00;95306.44;5029509;28;20045;-74
2022/06/08 01:32:12;;;;;;;7.38;3.42;;;;;;;11.89;100.00;95305.28;5018753;28;20426;-74
2022/06/08 01:34:40;;;;;;;6.60;3.40;;;;;;;11.87;100.00;95302.16;5024814;28;20041;-74
2022/06/08 01:37:35;;;;;;;6.95;3.40;;;;;;;11.87;100.00;95307.44;5021450;28;20076;-74
2022/06/08 01:40:49;;;;;;;6.40;3.40;;;;;;;11.83;100.00;95293.25;5019711;28;20061;-74
2022/06/08 01:43:22;;;;;;;7.78;3.50;;;;;;;11.93;100.00;95293.16;5008861;28;20711;-74
2022/06/08 01:46:27;;;;;;;5.43;3.10;;;;;;;11.96;100.00;95284.66;5032741;28;20037;-73
2022/06/08 01:49:26;;;;;;;4.73;3.10;;;;;;;12.11;100.00;95280.25;5025354;28;20053;-74
2022/06/08 01:52:07;;;;;;;5.30;3.05;;;;;;;12.10;100.00;95278.72;5026507;28;20279;-73
2022/06/08 01:54:48;;;;;;;5.40;3.28;;;;;;;12.06;100.00;95272.44;5024668;28;20108;-74
2022/06/08 01:57:46;;;;;;;8.80;2.92;;;;;;;12.10;100.00;95276.06;5028021;28;20091;-73
2022/06/08 02:00:21;;;;;;;5.50;3.20;;;;;;;12.10;100.00;95268.16;5005793;28;20057;-74
2022/06/08 02:03:05;;;;;;;8.55;3.25;;;;;;;12.12;100.00;95266.00;5027350;28;20510;-74
2022/06/08 02:05:49;;;;;;;5.88;3.30;;;;;;;12.07;100.00;95258.97;5027503;28;20068;-73
2022/06/08 02:08:39;;;;;;;16.52;3.45;;;;;;;12.04;100.00;95258.72;5023764;28;20042;-73
2022/06/08 02:11:28;;;;;;;5.90;3.10;;;;;;;12.22;100.00;95255.31;5028185;28;20048;-74
2022/06/08 02:14:00;;;;;;;5.03;3.00;;;;;;;12.15;100.00;95254.88;5022669;28;20046;-74
2022/06/08 02:16:34;;;;;;;6.55;3.08;;;;;;;12.00;100.00;95241.94;5027042;28;20399;-74
2022/06/08 02:19:08;;;;;;;4.85;3.20;;;;;;;11.98;100.00;95254.59;5028456;28;20053;-74
2022/06/08 02:21:44;;;;;;;5.43;3.10;;;;;;;12.02;100.00;95251.09;5028380;28;20045;-73
2022/06/08 02:24:17;;;;;;;4.60;2.92;;;;;;;12.06;100.00;95251.34;5021847;28;20048;-73
2022/06/08 02:26:48;;;;;;;4.95;3.20;;;;;;;12.06;100.00;95246.84;5026976;28;20045;-73
2022/06/08 02:29:23;;;;;;;7.88;2.90;;;;;;;12.13;100.00;95242.00;5026231;28;20034;-74
2022/06/08 02:31:54;;;;;;;4.72;3.00;;;;;;;12.09;100.00;95245.50;5026606;28;20061;-74
2022/06/08 02:34:36;;;;;;;6.63;3.25;;;;;;;12.05;100.00;95239.22;5027148;28;20049;-74
2022/06/08 02:37:17;;;;;;;6.03;2.95;;;;;;;12.01;100.00;95249.56;5028154;28;20052;-74
2022/06/08 02:39:57;;;;;;;4.85;2.50;;;;;;;12.02;100.00;95251.09;5023945;28;20046;-74
2022/06/08 02:42:37;;;;;;;4.68;2.50;;;;;;;11.94;100.00;95244.63;5027633;28;20045;-74
2022/06/08 02:45:10;;;;;;;5.25;2.85;;;;;;;11.98;100.00;95246.69;5028750;28;20049;-74
2022/06/08 02:47:38;;;;;;;3.80;2.63;;;;;;;12.01;100.00;95244.28;5028809;28;20491;-74
2022/06/08 02:50:09;;;;;;;4.45;2.60;;;;;;;11.95;100.00;95246.19;5026685;28;20502;-74
2022/06/08 02:52:36;;;;;;;6.95;2.90;;;;;;;11.99;100.00;95240.34;5023894;28;20376;-74
2022/06/08 02:55:09;;;;;;;6.55;2.60;;;;;;;12.00;100.00;95242.72;5028092;28;20049;-74
2022/06/08 02:57:53;;;;;;;7.60;2.65;;;;;;;11.98;100.00;95244.06;5027664;28;20041;-74
2022/06/08 03:00:31;;;;;;;3.85;2.53;;;;;;;11.91;100.00;95250.44;5025321;28;20483;-74
2022/06/08 03:03:17;;;;;;;5.22;2.75;;;;;;;11.90;100.00;95235.69;5025404;28;20065;-74
2022/06/08 03:06:00;;;;;;;5.30;2.58;;;;;;;11.88;100.00;95245.75;5024553;28;20102;-74
2022/06/08 03:08:35;;;;;;;4.80;2.70;;;;;;;11.84;100.00;95250.00;5036799;28;20042;-74
2022/06/08 03:11:04;;;;;;;6.10;2.70;;;;;;;11.76;100.00;95248.00;5028602;28;20063;-73
2022/06/08 03:13:37;;;;;;;4.57;2.55;;;;;;;11.76;100.00;95240.09;5027621;28;20041;-74
2022/06/08 03:16:05;;;;;;;4.32;2.60;;;;;;;11.79;100.00;95242.16;5026335;28;20045;-74
2022/06/08 03:18:31;;;;;;;3.95;2.30;;;;;;;11.81;100.00;95245.31;5026930;28;20044;-74
2022/06/08 03:20:58;;;;;;;4.97;2.53;;;;;;;11.83;100.00;95243.16;5026547;28;20057;-74
2022/06/08 03:23:24;;;;;;;4.13;2.75;;;;;;;11.94;100.00;95238.56;5028409;28;20046;-74
2022/06/08 03:25:51;;;;;;;4.20;2.60;;;;;;;11.89;100.00;95242.00;5028110;28;20104;-73
2022/06/08 03:28:18;;;;;;;7.78;2.53;;;;;;;11.86;100.00;95247.84;5022948;28;20042;-75
2022/06/08 03:30:45;;;;;;;4.35;2.70;;;;;;;11.86;100.00;95247.84;5027245;28;20045;-74
2022/06/08 03:33:12;;;;;;;3.83;2.58;;;;;;;11.88;100.00;95240.47;5026688;28;20044;-73
2022/06/08 03:35:37;;;;;;;7.75;2.63;;;;;;;11.93;100.00;95243.03;5021925;28;20042;-73
2022/06/08 03:38:03;;;;;;;4.47;2.50;;;;;;;11.94;100.00;95242.00;5026378;28;20049;-74
2022/06/08 03:40:30;;;;;;;6.45;2.72;;;;;;;11.99;100.00;95240.34;5023342;28;20037;-73
2022/06/08 03:42:56;;;;;;;7.07;2.50;;;;;;;12.01;100.00;95243.47;5023471;28;20041;-73
2022/06/08 03:45:21;;;;;;;4.68;2.30;;;;;;;11.94;100.00;95244.63;5027637;28;20500;-73
2022/06/08 03:47:50;;;;;;;4.22;2.58;;;;;;;11.93;100.00;95248.31;5025541;28;20076;-73
2022/06/08 03:50:20;;;;;;;5.05;2.42;;;;;;;11.93;100.00;95237.78;5026690;28;20037;-73
2022/06/08 03:52:55;;;;;;;5.65;2.47;;;;;;;11.92;100.00;95246.75;5025287;28;20061;-74
2022/06/08 03:55:22;;;;;;;4.53;2.40;;;;;;;11.92;100.00;95252.03;5030720;28;20044;-73
2022/06/08 03:57:50;;;;;;;5.18;2.67;;;;;;;11.90;100.00;95253.38;5031499;28;20115;-75
2022/06/08 04:00:18;;;;;;;4.95;2.90;;;;;;;11.89;100.00;95243.88;5031247;28;20041;-73
2022/06/08 04:02:47;;;;;;;6.95;2.80;;;;;;;11.88;100.00;95251.00;5028645;28;20120;-74
2022/06/08 04:05:14;;;;;;;6.32;2.38;;;;;;;11.89;100.00;95242.00;5036829;28;20751;-74
2022/06/08 04:07:39;;;;;;;4.32;2.80;;;;;;;12.01;100.00;95248.75;5031721;28;20488;-74
2022/06/08 04:10:05;;;;;;;4.53;2.72;;;;;;;11.99;100.00;95245.63;5029885;28;20091;-74
2022/06/08 04:12:32;;;;;;;4.47;2.63;;;;;;;11.99;100.00;95235.09;5026432;28;20041;-74
2022/06/08 04:14:57;;;;;;;4.60;2.53;;;;;;;12.09;100.00;95235.72;5023220;28;20477;-74
2022/06/08 04:17:23;;;;;;;5.43;2.60;;;;;;;12.04;100.00;95242.91;5030483;28;20042;-74
2022/06/08 04:19:49;;;;;;;7.75;2.75;;;;;;;12.04;100.00;95243.72;5030461;28;20124;-74
2022/06/08 04:22:19;;;;;;;8.25;2.55;;;;;;;12.09;100.00;95242.84;5022134;28;20041;-74
2022/06/08 04:24:46;;;;;;;4.43;2.58;;;;;;;12.20;100.00;95246.16;5028414;28;20041;-73
2022/06/08 04:27:12;;;;;;;3.40;2.30;;;;;;;12.27;100.00;95242.06;5030373;28;20048;-73
2022/06/08 04:29:39;;;;;;;4.05;2.67;;;;;;;12.36;100.00;95241.44;5031216;28;20041;-74
2022/06/08 04:32:07;;;;;;;3.70;2.60;;;;;;;12.36;100.00;95249.34;5027468;28;20087;-74
2022/06/08 04:34:33;;;;;;;4.22;2.60;;;;;;;12.25;100.00;95244.19;5026682;28;20084;-74
2022/06/08 04:36:58;;;;;;;3.80;2.47;;;;;;;12.34;100.00;95246.19;5029135;28;20088;-74
2022/06/08 04:39:24;;;;;;;7.32;2.60;;;;;;;12.38;100.00;95247.19;5030973;28;20530;-74
2022/06/08 04:41:49;;;;;;;7.30;2.55;;;;;;;12.36;100.00;95238.78;5024909;28;20053;-74
2022/06/08 04:44:15;;;;;;;5.18;2.45;;;;;;;12.40;100.00;95237.16;5029499;28;20073;-74
2022/06/08 04:46:41;;;;;;;5.10;2.15;;;;;;;12.43;100.00;95234.69;5030494;28;20049;-74
2022/06/08 04:49:08;;;;;;;4.07;2.58;;;;;;;12.52;100.00;95226.91;5031131;28;20045;-74
2022/06/08 04:51:34;;;;;;;4.50;2.55;;;;;;;12.63;100.00;95233.59;5028650;28;20037;-74
2022/06/08 04:54:00;;;;;;;4.13;2.22;;;;;;;12.65;100.00;95226.16;5028996;28;20045;-74
2022/06/08 04:56:25;;;;;;;4.85;2.58;;;;;;;12.75;100.00;95225.22;5023370;28;20049;-74
2022/06/08 04:58:54;;;;;;;5.00;2.42;;;;;;;12.77;100.00;95227.56;5029542;28;20132;-74
2022/06/08 05:01:21;;;;;;;3.80;2.33;;;;;;;12.86;100.00;95220.56;5029463;28;20069;-73
2022/06/08 05:03:46;;;;;;;3.75;2.40;;;;;;;12.95;100.00;95210.88;5029136;28;20183;-74
2022/06/08 05:06:12;;;;;;;9.45;2.42;;;;;;;13.00;100.00;95221.38;5018519;28;20125;-74
2022/06/08 05:08:37;;;;;;;5.05;2.40;;;;;;;13.09;100.00;95223.34;5026598;28;20041;-74
2022/06/08 05:11:05;;;;;;;5.97;2.30;;;;;;;13.16;100.00;95211.31;5028970;28;20507;-74
2022/06/08 05:13:31;;;;;;;4.50;2.38;;;;;;;13.18;100.00;95213.66;5021217;28;20099;-74
2022/06/08 05:15:57;;;;;;;3.65;2.30;;;;;;;13.25;100.00;95206.13;5027235;28;20052;-74
2022/06/08 05:18:23;;;;;;;4.22;2.38;;;;;;;13.30;100.00;95203.41;5030592;28;20045;-73
2022/06/08 05:20:49;;;;;;;5.25;2.35;;;;;;;13.32;100.00;95190.66;5029877;28;20048;-74
2022/06/08 05:23:19;;;;;;;6.40;2.42;;;;;;;13.42;100.00;95194.19;5028995;28;20038;-74
2022/06/08 05:25:44;;;;;;;6.57;2.40;;;;;;;13.61;100.00;95210.75;5028529;28;20042;-73
2022/06/08 05:28:11;;;;;;;4.72;2.40;;;;;;;13.54;100.00;95207.72;5029002;28;20418;-75
2022/06/08 05:30:37;;;;;;;4.25;2.40;;;;;;;13.65;100.00;95208.31;5029398;28;20053;-74
2022/06/08 05:33:04;;;;;;;4.43;2.28;;;;;;;13.75;100.00;95207.28;5026994;28;20159;-74
2022/06/08 05:35:30;;;;;;;4.97;2.33;;;;;;;13.81;100.00;95192.91;5026579;28;20128;-73
2022/06/08 05:37:56;;;;;;;3.72;2.50;;;;;;;13.97;100.00;95194.13;5030121;28;20049;-73
2022/06/08 05:40:23;;;;;;;5.15;2.40;;;;;;;14.13;100.00;95191.91;5030115;28;20041;-75
2022/06/08 05:42:48;;;;;;;3.67;2.40;;;;;;;14.13;100.00;95194.56;5029813;28;20095;-73
2022/06/08 05:45:21;;;;;;;6.18;2.25;;;;;;;14.28;100.00;95193.44;5028182;28;20713;-75
2022/06/08 05:47:47;;;;;;;12.52;2.40;;;;;;;14.37;100.00;95196.91;5028799;28;20567;-75
2022/06/08 05:50:13;;;;;;;6.25;2.40;;;;;;;14.22;100.00;95199.91;5025548;28;20052;-75
2022/06/08 05:52:39;;;;;;;4.43;2.30;;;;;;;14.31;100.00;95192.84;5026230;28;20042;-75
2022/06/08 05:55:05;;;;;;;7.55;2.40;;;;;;;14.36;100.00;95192.69;5029375;28;20407;-75
2022/06/08 05:57:30;;;;;;;6.45;2.40;;;;;;;14.27;100.00;95186.56;5026472;28;20057;-75
2022/06/08 05:59:56;;;;;;;4.93;2.40;;;;;;;14.45;100.00;95198.06;5026757;28;20095;-75
2022/06/08 06:02:22;;;;;;;5.45;2.38;;;;;;;14.36;100.00;95200.63;5027786;28;20107;-75
2022/06/08 06:04:48;;;;;;;5.97;2.40;;;;;;;14.65;100.00;95196.84;5028988;28;20045;-75
2022/06/08 06:07:14;;;;;;;4.50;2.17;;;;;;;14.66;100.00;95187.00;5026408;28;20068;-74
2022/06/08 06:09:40;;;;;;;6.03;2.70;;;;;;;14.80;100.00;95192.25;5028867;28;20083;-76
2022/06/08 06:12:07;;;;;;;5.65;2.30;;;;;;;14.81;100.00;95191.13;5025562;28;20042;-76
2022/06/08 06:14:32;;;;;;;7.85;2.38;;;;;;;14.71;100.00;95200.91;5027788;28;20041;-75
2022/06/08 06:16:58;;;;;;;16.75;3.50;;;;;;;15.03;98.10;95196.41;5027766;28;20041;-76
2022/06/08 06:19:24;;;;;;;4.53;2.30;;;;;;;14.83;100.00;95196.94;5025271;28;20045;-75
2022/06/08 06:21:50;;;;;;;7.65;2.40;;;;;;;14.72;100.00;95196.38;5027919;28;20570;-76
2022/06/08 06:24:15;;;;;;;4.72;2.20;;;;;;;14.99;100.00;95200.75;5028702;28;20037;-76
2022/06/08 06:26:41;;;;;;;4.60;2.30;;;;;;;15.13;100.00;95199.84;5027018;28;20056;-75
2022/06/08 06:29:06;;;;;;;8.55;2.35;;;;;;;15.25;98.80;95186.81;5026355;28;20076;-77
2022/06/08 06:31:45;;;;;;;7.80;2.30;;;;;;;15.25;95.34;95186.81;5027286;28;20045;-76
2022/06/08 06:34:13;;;;;;;10.05;2.58;;;;;;;15.29;99.29;95192.31;5027052;28;20413;-76
2022/06/08 06:36:39;;;;;;;4.57;2.55;;;;;;;15.19;98.20;95183.53;5026597;28;20040;-76
2022/06/08 06:39:05;;;;;;;10.55;2.47;;;;;;;15.51;96.53;95178.16;5028338;28;20136;-76
2022/06/08 06:41:31;;;;;;;4.93;2.60;;;;;;;15.42;97.73;95176.25;5026771;28;20040;-75
2022/06/08 06:43:56;;;;;;;6.78;2.67;;;;;;;15.32;98.63;95176.53;5027011;28;20498;-76
2022/06/08 06:46:22;;;;;;;4.47;2.60;;;;;;;15.44;93.13;95167.22;5028148;28;20419;-76
2022/06/08 06:48:47;;;;;;;5.03;2.55;;;;;;;15.39;98.11;95171.56;5023589;28;20045;-75
2022/06/08 06:51:13;;;;;;;6.32;2.70;;;;;;;15.20;95.11;95169.19;5024591;28;20041;-75
2022/06/08 06:53:38;;;;;;;8.18;2.55;;;;;;;15.23;95.16;95175.75;5024813;28;20041;-75
2022/06/08 06:56:04;;;;;;;7.00;2.45;;;;;;;15.25;94.69;95165.59;5026312;28;20487;-74
2022/06/08 06:58:30;;;;;;;8.77;2.63;;;;;;;15.09;100.00;95167.13;5022864;28;20088;-77
2022/06/08 07:00:55;;;;;;;7.65;2.53;;;;;;;15.40;95.84;95178.44;5023687;28;20037;-75
2022/06/08 07:03:22;;;;;;;7.07;2.70;;;;;;;15.66;90.03;95175.06;5027282;28;20453;-76
2022/06/08 07:05:48;;;;;;;7.60;2.50;;;;;;;15.57;93.33;95171.59;5025860;28;20037;-75
2022/06/08 07:08:14;;;;;;;6.88;2.50;;;;;;;15.80;89.47;95168.88;5023285;28;20045;-75
2022/06/08 07:10:40;;;;;;;4.88;2.50;;;;;;;15.63;90.24;95165.09;5023371;28;20068;-76
2022/06/08 07:13:05;;;;;;;6.80;2.50;;;;;;;15.41;97.44;95153.50;5025242;28;20042;-77
2022/06/08 07:15:31;;;;;;;7.70;2.80;;;;;;;15.25;98.72;95160.31;5026148;28;20037;-76
2022/06/08 07:17:56;;;;;;;9.35;2.75;;;;;;;15.24;100.00;95158.75;5023111;28;20049;-77
2022/06/08 07:20:23;;;;;;;7.53;3.13;;;;;;;15.39;97.67;95155.66;5023575;28;20045;-77
2022/06/08 07:22:50;;;;;;;10.77;3.05;;;;;;;15.55;96.78;95152.59;5026762;28;20044;-77
2022/06/08 07:25:17;;;;;;;9.20;2.97;;;;;;;15.55;92.54;95153.34;5030023;28;20042;-76
2022/06/08 07:27:44;;;;;;;8.68;3.03;;;;;;;15.58;94.50;95155.38;5031788;28;20042;-77
2022/06/08 07:30:10;;;;;;;8.52;3.15;;;;;;;15.57;100.00;95139.78;5025509;28;20061;-76
2022/06/08 07:32:36;;;;;;;9.88;3.28;;;;;;;15.65;96.24;95146.22;5027759;28;20046;-76
2022/06/08 07:35:03;;;;;;;7.75;4.00;;;;;;;15.73;94.71;95143.56;5029716;28;20403;-79
2022/06/08 07:37:29;;;;;;;10.35;2.97;;;;;;;15.73;96.23;95145.41;5028567;28;20465;-77
2022/06/08 07:39:54;;;;;;;8.35;3.35;;;;;;;15.70;94.37;95144.19;5030184;28;20056;-77
2022/06/08 07:42:21;;;;;;;7.05;2.67;;;;;;;15.85;90.51;95140.31;5025570;28;20046;-78
2022/06/08 07:44:47;;;;;;;6.55;2.67;;;;;;;15.92;94.26;95139.88;5027104;28;20037;-78
2022/06/08 07:47:13;;;;;;;6.10;2.75;;;;;;;15.83;92.14;95126.59;5023591;28;20096;-75
2022/06/08 07:49:39;;;;;;;9.30;2.85;;;;;;;16.08;92.78;95138.28;5031094;28;20045;-77
2022/06/08 07:52:14;;;;;;;4.50;2.50;;;;;;;16.33;85.43;95141.22;5021412;28;20041;-75
2022/06/08 07:54:41;;;;;;;6.65;2.63;;;;;;;16.59;84.54;95135.88;5027805;28;20060;-75
2022/06/08 07:57:11;;;;;;;8.73;2.58;;;;;;;16.77;82.65;95136.59;5029411;28;20119;-75
2022/06/08 07:59:38;;;;;;;6.93;2.83;;;;;;;16.87;82.79;95129.38;5028280;28;20107;-76
2022/06/08 08:02:07;;;;;;;5.88;2.80;;;;;;;16.90;82.68;95123.47;5022170;28;20068;-76
2022/06/08 08:04:34;;;;;;;5.70;2.72;;;;;;;16.84;80.70;95122.03;5029124;28;20045;-76
2022/06/08 08:06:59;;;;;;;7.45;2.65;;;;;;;16.88;81.29;95115.00;5029191;28;20048;-77
2022/06/08 08:09:25;;;;;;;7.68;2.80;;;;;;;16.60;88.80;95115.41;5026936;28;20045;-76
2022/06/08 08:11:53;;;;;;;9.15;3.20;;;;;;;16.58;86.62;95117.59;5029779;28;20042;-75
2022/06/08 08:14:21;;;;;;;8.20;3.30;;;;;;;16.56;93.21;95114.47;5028830;28;20540;-76
2022/06/08 08:16:48;;;;;;;8.85;3.10;;;;;;;16.70;94.12;95109.72;5031333;28;20096;-78
2022/06/08 08:19:17;;;;;;;8.60;2.90;;;;;;;17.22;87.34;95100.00;5021423;28;20045;-77
2022/06/08 08:21:44;;;;;;;5.88;2.90;;;;;;;17.34;81.42;95100.09;5023673;28;20041;-76
2022/06/08 08:24:10;;;;;;;8.98;2.92;;;;;;;17.09;87.27;95094.59;5026562;28;20045;-75
2022/06/08 08:26:35;;;;;;;8.05;2.70;;;;;;;17.10;86.44;95096.16;5024854;28;20040;-75
2022/06/08 08:29:01;;;;;;;5.07;2.67;;;;;;;17.31;84.29;95101.53;5030104;28;20041;-75
2022/06/08 08:31:27;;;;;;;11.38;2.88;;;;;;;17.37;86.39;95104.78;5026577;28;20140;-76
2022/06/08 08:33:53;;;;;;;10.27;2.70;;;;;;;17.46;84.23;95097.50;5028022;28;20450;-78
2022/06/08 08:36:19;;;;;;;8.40;2.78;;;;;;;17.33;88.13;95093.22;5026461;28;20070;-76
2022/06/08 08:38:45;;;;;;;5.20;3.05;;;;;;;17.34;83.70;95078.81;5026721;28;20042;-76
2022/06/08 08:44:06;;;;;;;7.47;3.15;;;;;;;17.11;90.64;95084.44;5031765;28;20040;-76
2022/06/08 08:47:01;;;;;;;7.13;2.70;;;;;;;16.92;89.06;95081.38;5027625;28;20037;-75
2022/06/08 08:49:30;;;;;;;7.47;2.60;;;;;;;16.98;89.01;95082.75;5027644;28;20764;-75
2022/06/08 08:51:56;;;;;;;7.05;2.50;;;;;;;17.31;93.05;95085.56;5028425;28;20495;-75
2022/06/08 08:54:29;;;;;;;6.22;2.60;;;;;;;17.57;80.00;95075.84;5031329;28;20083;-75
2022/06/08 08:57:04;;;;;;;5.90;2.90;;;;;;;17.61;85.94;95082.06;5018420;28;20067;-75
2022/06/08 08:59:31;;;;;;;9.90;2.65;;;;;;;17.68;75.12;95071.69;5027239;28;20049;-75
2022/06/08 09:01:59;;;;;;;10.50;3.03;;;;;;;17.41;82.21;95065.78;5018000;28;20042;-75
2022/06/08 09:04:29;;;;;;;16.05;3.70;;;;;;;17.46;82.76;95060.25;5032698;28;20419;-75
2022/06/08 09:06:55;;;;;;;11.35;2.67;;;;;;;17.60;81.85;95060.00;5033489;28;20041;-76
2022/06/08 09:09:31;;;;;;;6.93;2.92;;;;;;;18.06;74.68;95051.34;5038110;28;20461;-75
2022/06/08 09:11:57;;;;;;;4.68;2.30;;;;;;;18.56;72.21;95044.25;5031566;28;20064;-75
2022/06/08 09:14:26;;;;;;;9.25;2.67;;;;;;;18.67;75.95;95045.38;5032030;28;20045;-75
2022/06/08 09:17:09;;;;;;;5.20;2.40;;;;;;;18.60;69.71;95045.13;5031545;28;20527;-75
2022/06/08 09:19:48;;;;;;;4.70;2.45;;;;;;;18.33;71.78;95028.66;5032725;28;20041;-75
2022/06/08 09:22:46;;;;;;;5.82;2.50;;;;;;;18.70;69.40;95028.72;5031805;28;20037;-75
2022/06/08 09:25:30;;;;;;;6.88;2.67;;;;;;;18.95;66.62;95028.72;5030062;28;20543;-75
2022/06/08 09:27:57;;;;;;;6.82;2.17;;;;;;;18.82;63.62;95026.06;5055849;28;20079;-75
2022/06/08 09:30:27;;;;;;;3.38;2.03;;;;;;;18.82;61.06;95015.41;5056054;28;20036;-74
2022/06/08 09:33:14;;;;;;;5.70;2.38;;;;;;;18.92;63.81;95014.19;5048890;28;20053;-74
2022/06/08 09:35:53;;;;;;;6.30;2.47;;;;;;;18.78;66.16;95014.50;5057609;28;20045;-75
2022/06/08 09:38:21;;;;;;;7.22;2.45;;;;;;;18.85;67.94;95009.38;5049804;28;20080;-74
2022/06/08 09:41:22;;;;;;;7.15;2.40;;;;;;;18.57;67.79;95003.94;5064283;28;20039;-74
2022/06/08 09:43:57;;;;;;;7.28;2.55;;;;;;;18.62;63.83;95011.72;5053310;28;20059;-74
2022/06/08 09:52:49;;;;;;;4.75;2.28;;;;;;;19.12;68.81;95003.72;5056015;28;20054;-75
2022/06/08 09:55:53;;;;;;;7.05;2.25;;;;;;;19.29;61.03;94995.44;5056952;28;20047;-75
2022/06/08 09:58:52;;;;;;;6.65;2.60;;;;;;;19.04;65.65;94995.50;5054184;28;20066;-75
2022/06/08 10:01:30;;;;;;;5.38;2.35;;;;;;;19.16;61.15;94989.38;5047724;28;20030;-76
2022/06/08 10:04:14;;;;;;;6.50;2.45;;;;;;;18.73;69.00;94985.41;5054375;28;20057;-76
2022/06/08 10:06:44;;;;;;;13.57;3.53;;;;;;;18.83;69.08;94984.16;5055151;28;20041;-76
2022/06/08 10:09:43;;;;;;;5.97;2.65;;;;;;;18.93;65.92;94982.97;5023900;28;20064;-77
2022/06/08 10:12:57;;;;;;;7.00;2.67;;;;;;;19.20;63.89;94971.56;5024184;28;20564;-77
2022/06/08 10:15:38;;;;;;;7.20;2.90;;;;;;;19.62;68.47;94969.66;5027556;28;20091;-76
2022/06/08 10:18:24;;;;;;;6.68;2.65;;;;;;;20.06;66.79;94961.69;5024399;28;20041;-76
2022/06/08 10:20:59;;;;;;;8.77;2.60;;;;;;;20.59;67.46;94962.19;5030283;28;20513;-75
2022/06/08 10:23:51;;;;;;;6.90;2.70;;;;;;;20.10;65.15;94967.09;5028497;28;20061;-77
2022/06/08 10:26:31;;;;;;;7.22;2.85;;;;;;;20.81;66.48;94967.28;5027325;28;20450;-76
2022/06/08 10:29:12;;;;;;;5.50;2.42;;;;;;;21.18;62.39;94965.03;5027191;28;20041;-75
2022/06/08 10:31:46;;;;;;;6.93;2.47;;;;;;;21.20;62.28;94960.09;5028570;28;20045;-77
2022/06/08 10:34:17;;;;;;;9.23;2.60;;;;;;;21.39;58.88;94953.19;5032003;28;20042;-77
2022/06/08 10:36:49;;;;;;;8.45;2.78;;;;;;;21.74;62.25;94947.03;5024311;28;20456;-75
2022/06/08 10:39:15;;;;;;;8.93;2.80;;;;;;;21.02;61.88;94938.34;5027020;28;20053;-78
2022/06/08 10:42:40;;;;;;;7.60;2.70;;;;;;;21.21;62.47;94931.44;5028196;28;20515;-77
2022/06/08 10:45:27;;;;;;;4.65;2.97;;;;;;;21.52;58.41;94930.56;5031495;28;20038;-76
2022/06/08 10:48:01;;;;;;;8.27;2.42;;;;;;;22.30;58.53;94930.38;5029945;28;20577;-76
2022/06/08 10:50:29;;;;;;;6.75;2.50;;;;;;;23.01;53.55;94929.09;5028188;28;20041;-76
2022/06/08 10:54:53;;;;;;;4.75;2.38;;;;;;;23.46;52.63;94932.75;5029318;28;20447;-75
2022/06/08 10:55:41;;;;;;;11.32;2.58;;;;;;;23.44;51.77;94928.91;5029170;28;20491;-76
2022/06/08 10:58:12;;;;;;;4.35;2.20;;;;;;;23.43;45.88;94916.59;5024333;28;20048;-75
2022/06/08 11:00:47;;;;;;;4.35;2.35;;;;;;;23.25;51.86;94917.16;5021132;28;20042;-75
2022/06/08 11:03:42;;;;;;;5.47;2.30;;;;;;;23.66;52.58;94905.72;5024835;28;20057;-75
2022/06/08 11:06:18;;;;;;;7.05;2.60;;;;;;;23.90;52.93;94907.13;5017105;28;20058;-76
2022/06/08 11:08:51;;;;;;;5.68;2.53;;;;;;;24.73;50.18;94903.19;5022677;28;20033;-75
2022/06/08 11:11:44;;;;;;;9.18;2.58;;;;;;;24.96;49.89;94898.69;5027858;28;20048;-75
2022/06/08 11:14:30;;;;;;;4.63;2.40;;;;;;;25.23;44.34;94896.50;5030038;28;20041;-77
2022/06/08 11:17:09;;;;;;;4.65;2.45;;;;;;;24.20;48.36;94898.94;5025912;28;20093;-74
2022/06/08 11:19:35;;;;;;;4.80;2.80;;;;;;;23.83;50.44;94896.28;5027656;28;20050;-72
2022/06/08 11:22:10;;;;;;;5.35;2.53;;;;;;;23.70;51.89;94899.25;5026004;28;20052;-72
2022/06/08 11:24:45;;;;;;;10.00;2.60;;;;;;;22.87;52.91;94892.16;5027881;28;20096;-72
2022/06/08 11:27:11;;;;;;;4.18;2.20;;;;;;;23.70;49.32;94880.47;5027147;28;20352;-73
2022/06/08 11:29:46;;;;;;;5.32;2.30;;;;;;;24.24;49.02;94888.22;5027807;28;20045;-73
2022/06/08 11:32:30;;;;;;;5.40;2.38;;;;;;;24.92;47.06;94866.38;5024057;28;20037;-72
2022/06/08 11:35:16;;;;;;;3.55;2.17;;;;;;;24.36;51.49;94861.03;5022579;28;20092;-72
2022/06/08 11:38:13;;;;;;;6.13;2.50;;;;;;;24.65;50.05;94858.56;5027796;28;20041;-73
2022/06/08 11:40:39;;;;;;;5.65;2.50;;;;;;;24.68;45.19;94863.19;5025923;28;20044;-72
2022/06/08 11:43:13;;;;;;;6.75;2.28;;;;;;;24.45;47.04;94860.72;5025000;28;20049;-72
2022/06/08 11:45:40;;;;;;;5.32;2.67;;;;;;;23.42;48.67;94855.97;5021257;28;20048;-73
2022/06/08 11:48:14;;;;;;;4.32;2.15;;;;;;;25.40;49.50;94852.72;5027722;28;20091;-73
2022/06/08 11:50:47;;;;;;;7.10;2.53;;;;;;;26.05;42.38;94841.28;5025445;28;20046;-72
2022/06/08 11:53:18;;;;;;;4.22;2.40;;;;;;;26.38;46.43;94842.03;5027246;28;20038;-73
2022/06/08 11:56:25;;;;;;;8.20;2.67;;;;;;;25.62;43.53;94842.00;5023692;28;20120;-72
2022/06/08 11:58:54;;;;;;;5.32;2.40;;;;;;;24.92;46.02;94842.16;5024863;28;20045;-72
2022/06/08 12:01:24;;;;;;;8.45;2.92;;;;;;;25.62;44.59;94836.59;5026671;28;20080;-72